createdAt,value
2023-04-19T00:00:08.587Z,12.82
2023-04-19T00:05:08.061Z,12.73
2023-04-19T00:10:08.185Z,9.70
2023-04-19T00:15:08.269Z,10.75
2023-04-19T00:20:08.352Z,10.52
2023-04-19T00:25:08.403Z,12.07
2023-04-19T00:30:08.457Z,11.68
2023-04-19T00:35:08.520Z,9.00
2023-04-19T00:40:08.597Z,8.98
2023-04-19T00:45:08.664Z,11.18
2023-04-19T00:50:08.728Z,11.40
2023-04-19T00:55:08.782Z,10.90
2023-04-19T01:00:08.818Z,11.82
2023-04-19T01:05:08.810Z,8.73
2023-04-19T01:10:08.832Z,10.50
2023-04-19T01:15:08.883Z,11.57
2023-04-19T01:20:08.955Z,11.70
2023-04-19T01:25:08.913Z,10.48
2023-04-19T01:30:08.963Z,8.98
2023-04-19T01:35:08.030Z,12.80
2023-04-19T01:40:08.075Z,10.50
2023-04-19T01:45:08.087Z,10.77
2023-04-19T01:50:08.125Z,9.45
2023-04-19T01:55:08.113Z,10.35
2023-04-19T02:00:08.150Z,8.95
2023-04-19T02:05:08.248Z,9.27
2023-04-19T02:10:08.293Z,10.45
2023-04-19T02:15:08.328Z,10.57
2023-04-19T02:20:08.430Z,9.63
2023-04-19T02:25:08.507Z,12.60
2023-04-19T02:30:08.588Z,8.32
2023-04-19T02:35:08.638Z,7.72
2023-04-19T02:40:08.667Z,11.82
2023-04-19T02:45:08.734Z,8.95
2023-04-19T02:50:08.837Z,10.50
2023-04-19T02:55:08.877Z,7.13
2023-04-19T03:00:08.869Z,6.75
2023-04-19T03:05:08.916Z,8.65
2023-04-19T03:10:08.965Z,8.38
2023-04-19T03:15:07.972Z,7.68
2023-04-19T03:20:08.022Z,5.82
2023-04-19T03:25:08.058Z,12.27
2023-04-19T03:30:08.272Z,5.38
2023-04-19T03:35:08.268Z,7.00
2023-04-19T03:40:08.315Z,6.75
2023-04-19T03:45:08.373Z,5.40
2023-04-19T03:50:08.429Z,7.40
2023-04-19T03:55:08.495Z,6.55
2023-04-19T04:00:08.654Z,6.38
2023-04-19T04:05:02.994Z,6.80
2023-04-19T04:10:03.404Z,5.40
2023-04-19T04:15:03.088Z,7.20
2023-04-19T04:20:02.439Z,7.40
2023-04-19T04:25:02.607Z,8.57
2023-04-19T04:30:03.009Z,7.57
2023-04-19T04:35:02.394Z,7.40
2023-04-19T04:40:02.931Z,8.10
2023-04-19T04:45:02.236Z,6.47
2023-04-19T04:50:02.492Z,7.72
2023-04-19T04:55:02.967Z,6.45
2023-04-19T05:00:02.238Z,6.88
2023-04-19T05:05:02.382Z,7.60
2023-04-19T05:10:02.558Z,7.47
2023-04-19T05:15:02.748Z,6.88
2023-04-19T05:20:02.859Z,5.97
2023-04-19T05:25:03.054Z,7.43
2023-04-19T05:30:02.287Z,5.15
2023-04-19T05:35:02.558Z,7.05
2023-04-19T05:40:03.048Z,7.65
2023-04-19T05:45:03.406Z,8.35
2023-04-19T05:50:02.755Z,4.70
2023-04-19T05:55:03.074Z,5.07
2023-04-19T06:00:02.594Z,6.80
2023-04-19T06:05:08.491Z,5.25
2023-04-19T06:10:02.808Z,5.65
2023-04-19T06:15:03.269Z,4.68
2023-04-19T06:20:02.600Z,3.83
2023-04-19T06:25:02.818Z,6.03
2023-04-19T06:30:03.017Z,4.60
2023-04-19T06:35:02.250Z,4.28
2023-04-19T06:40:02.562Z,6.85
2023-04-19T06:45:02.761Z,5.05
2023-04-19T06:50:02.984Z,6.15
2023-04-19T06:55:02.245Z,5.22
2023-04-19T07:00:02.544Z,3.20
2023-04-19T07:05:02.900Z,3.97
2023-04-19T07:10:03.185Z,5.75
2023-04-19T07:15:02.406Z,3.30
2023-04-19T07:20:02.870Z,5.30
2023-04-19T07:25:03.314Z,6.03
2023-04-19T07:30:02.509Z,7.95
2023-04-19T07:35:02.806Z,3.38
2023-04-19T07:40:03.193Z,4.13
2023-04-19T07:45:02.423Z,4.57
2023-04-19T07:50:02.899Z,4.07
2023-04-19T07:55:03.281Z,3.13
2023-04-19T08:00:02.573Z,6.00
2023-04-19T08:05:02.945Z,4.18
2023-04-19T08:10:02.185Z,4.25
2023-04-19T08:15:13.537Z,5.57
2023-04-19T08:20:02.352Z,3.55
2023-04-19T08:25:02.740Z,3.28
2023-04-19T08:30:03.024Z,2.70
2023-04-19T08:35:02.190Z,3.67
2023-04-19T08:40:02.474Z,2.67
2023-04-19T08:45:26.166Z,2.45
2023-04-19T08:55:06.598Z,4.18
2023-04-19T09:00:02.770Z,2.33
2023-04-19T09:05:03.099Z,3.08
2023-04-19T09:10:09.847Z,3.58
2023-04-19T09:15:07.839Z,4.28
2023-04-19T09:20:03.037Z,2.67
2023-04-19T09:25:35.416Z,2.30
2023-04-19T09:30:02.866Z,2.33
2023-04-19T09:35:03.007Z,2.42
2023-04-19T09:40:02.219Z,6.07
2023-04-19T09:45:28.438Z,4.40
2023-04-19T09:50:21.979Z,4.03
2023-04-19T09:55:04.790Z,4.03
2023-04-19T10:00:02.791Z,3.70
2023-04-19T10:05:19.685Z,2.53
2023-04-19T10:10:16.130Z,7.97
2023-04-19T10:15:02.993Z,2.15
2023-04-19T10:20:02.098Z,4.03
2023-04-19T10:25:02.326Z,3.08
2023-04-19T10:30:02.663Z,2.20
2023-04-19T10:35:02.908Z,2.22
2023-04-19T10:40:03.180Z,4.88
2023-04-19T10:45:12.361Z,0
2023-04-19T10:50:02.617Z,2.78
2023-04-19T10:55:02.882Z,5.43
2023-04-19T11:00:03.216Z,2.83
2023-04-19T11:05:02.435Z,5.82
2023-04-19T11:10:02.737Z,3.85
2023-04-19T11:15:03.052Z,2.35
2023-04-19T11:20:02.246Z,2.75
2023-04-19T11:25:02.522Z,1.83
2023-04-19T11:30:02.795Z,3.28
2023-04-19T11:35:03.069Z,2.55
2023-04-19T11:40:04.668Z,2.80
2023-04-19T11:45:02.581Z,5.82
2023-04-19T11:50:02.764Z,3.20
2023-04-19T11:55:02.940Z,2.47
2023-04-19T12:00:07.360Z,6.38
2023-04-19T12:05:02.747Z,2.45
2023-04-19T12:10:02.912Z,5.00
2023-04-19T12:15:03.109Z,2.40
2023-04-19T12:20:02.341Z,2.85
2023-04-19T12:25:02.605Z,2.58
2023-04-19T12:30:02.866Z,2.63
2023-04-19T12:35:03.029Z,2.60
2023-04-19T12:40:02.164Z,2.33
2023-04-19T12:45:02.339Z,3.45
2023-04-19T12:50:02.521Z,5.60
2023-04-19T12:55:02.738Z,3.58
2023-04-19T13:00:03.260Z,2.90
2023-04-19T13:05:02.675Z,4.63
2023-04-19T13:10:03.025Z,2.95
2023-04-19T13:15:04.518Z,5.82
2023-04-19T13:20:02.269Z,3.25
2023-04-19T13:25:02.527Z,4.22
2023-04-19T13:30:02.779Z,3.13
2023-04-19T13:35:03.217Z,2.92
2023-04-19T13:40:17.429Z,9.77
2023-04-19T13:45:02.428Z,4.45
2023-04-19T13:50:02.696Z,2.92
2023-04-19T13:55:02.904Z,5.75
2023-04-19T14:00:03.149Z,5.90
2023-04-19T14:05:02.374Z,4.97
2023-04-19T14:10:02.621Z,5.55
2023-04-19T14:15:02.889Z,4.25
2023-04-19T14:20:04.987Z,4.22
2023-04-19T14:25:02.810Z,3.25
2023-04-19T14:30:03.035Z,3.75
2023-04-19T14:35:02.653Z,4.63
2023-04-19T14:40:03.096Z,5.82
2023-04-19T14:45:02.331Z,4.03
2023-04-19T14:50:02.657Z,4.35
2023-04-19T14:55:03.061Z,2.80
2023-04-19T15:00:02.462Z,2.70
2023-04-19T15:05:03.112Z,5.50
2023-04-19T15:10:02.382Z,4.45
2023-04-19T15:15:02.578Z,3.70
2023-04-19T15:20:03.028Z,3.85
2023-04-19T15:25:02.406Z,6.63
2023-04-19T15:30:02.543Z,5.35
2023-04-19T15:35:03.230Z,2.45
2023-04-19T15:40:02.613Z,2.78
2023-04-19T15:45:02.775Z,2.50
2023-04-19T15:50:02.949Z,3.28
2023-04-19T15:55:02.240Z,2.50
2023-04-19T16:00:02.767Z,2.22
2023-04-19T16:05:03.106Z,3.08
2023-04-19T16:10:02.571Z,2.50
2023-04-19T16:15:03.088Z,2.03
2023-04-19T16:20:02.361Z,3.60
2023-04-19T16:25:02.629Z,2.45
2023-04-19T16:30:03.301Z,5.15
2023-04-19T16:35:02.590Z,2.40
2023-04-19T16:40:02.977Z,4.93
2023-04-19T16:45:02.208Z,2.15
2023-04-19T16:50:02.456Z,3.88
2023-04-19T16:55:02.712Z,1.77
2023-04-19T17:00:03.065Z,4.32
2023-04-19T17:05:02.514Z,2.83
2023-04-19T17:10:03.044Z,2.95
2023-04-19T17:15:02.448Z,2.10
2023-04-19T17:20:02.710Z,6.15
2023-04-19T17:25:02.974Z,4.40
2023-04-19T17:30:02.252Z,6.13
2023-04-19T17:35:02.561Z,2.10
2023-04-19T17:40:02.717Z,3.15
2023-04-19T17:45:02.896Z,6.38
2023-04-19T17:50:03.096Z,2.88
2023-04-19T17:55:02.495Z,4.07
2023-04-19T18:00:02.584Z,2.78
2023-04-19T18:05:02.930Z,3.28
2023-04-19T18:10:02.207Z,5.70
2023-04-19T18:15:02.441Z,3.95
2023-04-19T18:20:02.751Z,2.47
2023-04-19T18:25:03.278Z,5.07
2023-04-19T18:30:02.395Z,3.42
2023-04-19T18:35:02.560Z,4.05
2023-04-19T18:40:02.783Z,2.65
2023-04-19T18:45:03.828Z,3.05
2023-04-19T18:50:04.960Z,5.20
2023-04-19T18:55:02.264Z,3.83
2023-04-19T19:00:02.613Z,4.50
2023-04-19T19:05:03.278Z,4.35
2023-04-19T19:10:09.826Z,5.68
2023-04-19T19:15:02.789Z,4.82
2023-04-19T19:20:02.987Z,5.82
2023-04-19T19:25:02.139Z,7.65
2023-04-19T19:30:02.276Z,4.30
2023-04-19T19:35:06.377Z,2.53
2023-04-19T19:40:05.139Z,3.72
2023-04-19T19:45:02.490Z,2.40
2023-04-19T19:50:34.914Z,2.30
2023-04-19T19:55:02.316Z,2.55
2023-04-19T20:00:22.965Z,3.50
2023-04-19T20:05:02.909Z,2.85
2023-04-19T20:10:02.306Z,5.72
2023-04-19T20:15:02.556Z,2.88
2023-04-19T20:20:02.741Z,3.33
2023-04-19T20:25:02.817Z,3.60
2023-04-19T20:30:02.976Z,2.35
2023-04-19T20:35:02.221Z,2.85
2023-04-19T20:40:02.368Z,4.90
2023-04-19T20:45:02.520Z,3.67
2023-04-19T20:50:02.738Z,6.10
2023-04-19T20:55:02.835Z,4.40
2023-04-19T21:00:03.456Z,2.40
2023-04-19T21:05:22.431Z,2.92
2023-04-19T21:10:08.511Z,2.72
2023-04-19T21:15:08.549Z,3.78
2023-04-19T21:20:08.640Z,3.30
2023-04-19T21:25:08.654Z,2.53
2023-04-19T21:30:08.695Z,2.13
2023-04-19T21:35:08.733Z,2.50
2023-04-19T21:40:08.833Z,2.17
2023-04-19T21:45:08.859Z,2.60
2023-04-19T21:50:08.997Z,3.53
2023-04-19T21:55:08.081Z,3.10
2023-04-19T22:00:08.114Z,4.00
2023-04-19T22:05:08.206Z,2.30
2023-04-19T22:10:08.349Z,2.78
2023-04-19T22:15:08.462Z,2.53
2023-04-19T22:20:08.559Z,4.93
2023-04-19T22:25:08.617Z,2.10
2023-04-19T22:30:08.692Z,2.03
2023-04-19T22:35:08.734Z,2.10
2023-04-19T22:40:08.814Z,2.17
2023-04-19T22:45:08.878Z,2.88
2023-04-19T22:50:09.028Z,5.03
2023-04-19T22:55:08.127Z,2.63
2023-04-19T23:01:13.734Z,2.17
2023-04-19T23:05:08.883Z,4.72
2023-04-19T23:10:08.264Z,2.30
2023-04-19T23:15:08.343Z,4.55
2023-04-19T23:20:11.230Z,2.47
2023-04-19T23:25:08.315Z,2.75
2023-04-19T23:30:08.356Z,4.38
2023-04-19T23:35:08.404Z,5.93
2023-04-19T23:40:08.490Z,2.65
2023-04-19T23:45:08.569Z,3.45
2023-04-19T23:50:08.623Z,2.42
2023-04-19T23:55:08.699Z,3.30
